sensor_id;sensor_type;location;lat;lon;timestamp;temperature;humidity
57030;DHT22;42920;45.306;20.448;2023-12-20T00:00:55;128.10;2252.80
57030;DHT22;42920;45.306;20.448;2023-12-20T00:03:21;128.10;2252.80
57030;DHT22;42920;45.306;20.448;2023-12-20T00:05:47;128.20;2252.80
57030;DHT22;42920;45.306;20.448;2023-12-20T00:08:13;128.20;2252.80
57030;DHT22;42920;45.306;20.448;2023-12-20T00:10:38;128.00;2252.80
57030;DHT22;42920;45.306;20.448;2023-12-20T00:13:04;103.30;2227.20
57030;DHT22;42920;45.306;20.448;2023-12-20T00:15:29;103.20;2227.20
57030;DHT22;42920;45.306;20.448;2023-12-20T00:17:55;103.30;2227.20
57030;DHT22;42920;45.306;20.448;2023-12-20T00:20:21;103.20;2227.20
57030;DHT22;42920;45.306;20.448;2023-12-20T00:22:46;103.10;2227.20
57030;DHT22;42920;45.306;20.448;2023-12-20T00:25:12;103.10;2227.20
57030;DHT22;42920;45.306;20.448;2023-12-20T00:27:38;103.10;2227.20
57030;DHT22;42920;45.306;20.448;2023-12-20T00:30:03;103.10;2227.20
57030;DHT22;42920;45.306;20.448;2023-12-20T00:32:29;103.00;2227.20
57030;DHT22;42920;45.306;20.448;2023-12-20T00:34:54;102.80;2227.20
57030;DHT22;42920;45.306;20.448;2023-12-20T00:37:20;102.80;2227.20
57030;DHT22;42920;45.306;20.448;2023-12-20T00:39:46;102.70;2227.20
57030;DHT22;42920;45.306;20.448;2023-12-20T00:42:11;102.70;2227.20
57030;DHT22;42920;45.306;20.448;2023-12-20T00:44:37;102.70;2227.20
57030;DHT22;42920;45.306;20.448;2023-12-20T00:47:03;102.40;2227.20
57030;DHT22;42920;45.306;20.448;2023-12-20T00:49:28;102.40;2227.20
57030;DHT22;42920;45.306;20.448;2023-12-20T00:51:54;77.60;2227.20
57030;DHT22;42920;45.306;20.448;2023-12-20T00:54:19;77.60;2227.20
57030;DHT22;42920;45.306;20.448;2023-12-20T00:56:45;77.50;2227.20
57030;DHT22;42920;45.306;20.448;2023-12-20T00:59:11;77.50;2227.20
57030;DHT22;42920;45.306;20.448;2023-12-20T01:01:36;77.40;2227.20
57030;DHT22;42920;45.306;20.448;2023-12-20T01:04:02;77.40;2227.20
57030;DHT22;42920;45.306;20.448;2023-12-20T01:06:27;77.40;2227.20
57030;DHT22;42920;45.306;20.448;2023-12-20T01:08:53;77.40;2227.20
57030;DHT22;42920;45.306;20.448;2023-12-20T01:11:19;77.40;2227.20
57030;DHT22;42920;45.306;20.448;2023-12-20T01:13:44;77.50;2227.20
57030;DHT22;42920;45.306;20.448;2023-12-20T01:16:10;77.40;2227.20
57030;DHT22;42920;45.306;20.448;2023-12-20T01:18:36;77.40;2227.20
57030;DHT22;42920;45.306;20.448;2023-12-20T01:21:02;77.50;2227.20
57030;DHT22;42920;45.306;20.448;2023-12-20T01:23:28;77.50;2227.20
57030;DHT22;42920;45.306;20.448;2023-12-20T01:25:54;77.70;2227.20
57030;DHT22;42920;45.306;20.448;2023-12-20T01:28:20;102.40;2227.20
57030;DHT22;42920;45.306;20.448;2023-12-20T01:30:45;102.40;2227.20
57030;DHT22;42920;45.306;20.448;2023-12-20T01:33:11;77.70;2227.20
57030;DHT22;42920;45.306;20.448;2023-12-20T01:35:37;102.40;2227.20
57030;DHT22;42920;45.306;20.448;2023-12-20T01:38:02;102.40;2227.20
57030;DHT22;42920;45.306;20.448;2023-12-20T01:40:28;102.50;2227.20
57030;DHT22;42920;45.306;20.448;2023-12-20T01:45:25;77.70;2227.20
57030;DHT22;42920;45.306;20.448;2023-12-20T01:47:51;102.40;2227.20
57030;DHT22;42920;45.306;20.448;2023-12-20T01:50:17;77.70;2227.20
57030;DHT22;42920;45.306;20.448;2023-12-20T01:52:43;102.40;2227.20
57030;DHT22;42920;45.306;20.448;2023-12-20T01:55:09;102.50;2227.20
57030;DHT22;42920;45.306;20.448;2023-12-20T01:57:41;102.50;2227.20
57030;DHT22;42920;45.306;20.448;2023-12-20T02:00:08;102.50;2227.20
57030;DHT22;42920;45.306;20.448;2023-12-20T02:02:35;102.50;2227.20
57030;DHT22;42920;45.306;20.448;2023-12-20T02:05:02;102.50;2227.20
57030;DHT22;42920;45.306;20.448;2023-12-20T02:07:29;102.50;2227.20
57030;DHT22;42920;45.306;20.448;2023-12-20T02:09:56;77.60;2227.20
57030;DHT22;42920;45.306;20.448;2023-12-20T02:12:22;77.40;2227.20
57030;DHT22;42920;45.306;20.448;2023-12-20T02:14:48;77.50;2227.20
57030;DHT22;42920;45.306;20.448;2023-12-20T02:17:13;77.50;2227.20
57030;DHT22;42920;45.306;20.448;2023-12-20T02:19:39;77.50;2227.20
57030;DHT22;42920;45.306;20.448;2023-12-20T02:22:08;77.40;2227.20
57030;DHT22;42920;45.306;20.448;2023-12-20T02:24:34;77.20;2227.20
57030;DHT22;42920;45.306;20.448;2023-12-20T02:27:00;77.20;2227.20
57030;DHT22;42920;45.306;20.448;2023-12-20T02:29:25;77.20;2227.20
57030;DHT22;42920;45.306;20.448;2023-12-20T02:31:51;77.30;2227.20
57030;DHT22;42920;45.306;20.448;2023-12-20T02:34:16;77.10;2227.20
57030;DHT22;42920;45.306;20.448;2023-12-20T02:36:42;77.30;2227.20
57030;DHT22;42920;45.306;20.448;2023-12-20T02:39:08;77.30;2227.20
57030;DHT22;42920;45.306;20.448;2023-12-20T02:41:33;77.10;2227.20
57030;DHT22;42920;45.306;20.448;2023-12-20T02:43:59;77.10;2227.20
57030;DHT22;42920;45.306;20.448;2023-12-20T02:46:24;77.10;2227.20
57030;DHT22;42920;45.306;20.448;2023-12-20T02:48:50;77.20;2227.20
57030;DHT22;42920;45.306;20.448;2023-12-20T02:51:16;77.30;2227.20
57030;DHT22;42920;45.306;20.448;2023-12-20T02:53:41;77.30;2227.20
57030;DHT22;42920;45.306;20.448;2023-12-20T02:56:07;77.20;2227.20
57030;DHT22;42920;45.306;20.448;2023-12-20T02:58:32;77.10;2227.20
57030;DHT22;42920;45.306;20.448;2023-12-20T03:00:58;77.00;2227.20
57030;DHT22;42920;45.306;20.448;2023-12-20T03:03:24;77.00;2227.20
57030;DHT22;42920;45.306;20.448;2023-12-20T03:05:49;77.10;2227.20
57030;DHT22;42920;45.306;20.448;2023-12-20T03:08:15;76.90;2227.20
57030;DHT22;42920;45.306;20.448;2023-12-20T03:10:40;76.90;2227.20
57030;DHT22;42920;45.306;20.448;2023-12-20T03:13:06;76.90;2227.20
57030;DHT22;42920;45.306;20.448;2023-12-20T03:15:31;77.00;2227.20
57030;DHT22;42920;45.306;20.448;2023-12-20T03:17:57;77.00;2227.20
57030;DHT22;42920;45.306;20.448;2023-12-20T03:20:24;77.00;2227.20
57030;DHT22;42920;45.306;20.448;2023-12-20T03:22:51;77.00;2227.20
57030;DHT22;42920;45.306;20.448;2023-12-20T03:25:17;77.10;2227.20
57030;DHT22;42920;45.306;20.448;2023-12-20T03:27:42;76.80;2227.20
57030;DHT22;42920;45.306;20.448;2023-12-20T03:30:08;52.10;2227.20
57030;DHT22;42920;45.306;20.448;2023-12-20T03:32:34;76.80;2227.20
57030;DHT22;42920;45.306;20.448;2023-12-20T03:35:00;52.10;2227.20
57030;DHT22;42920;45.306;20.448;2023-12-20T03:37:25;51.80;2227.20
57030;DHT22;42920;45.306;20.448;2023-12-20T03:39:51;51.70;2227.20
57030;DHT22;42920;45.306;20.448;2023-12-20T03:42:16;51.40;2227.20
57030;DHT22;42920;45.306;20.448;2023-12-20T03:44:42;51.30;2227.20
57030;DHT22;42920;45.306;20.448;2023-12-20T03:47:07;51.30;2227.20
57030;DHT22;42920;45.306;20.448;2023-12-20T03:49:33;51.30;2227.20
57030;DHT22;42920;45.306;20.448;2023-12-20T03:51:59;51.30;2227.20
57030;DHT22;42920;45.306;20.448;2023-12-20T03:54:24;51.20;2227.20
57030;DHT22;42920;45.306;20.448;2023-12-20T03:56:50;51.50;2227.20
57030;DHT22;42920;45.306;20.448;2023-12-20T03:59:15;51.50;2227.20
57030;DHT22;42920;45.306;20.448;2023-12-20T04:01:44;51.60;2227.20
57030;DHT22;42920;45.306;20.448;2023-12-20T04:04:10;51.60;2227.20
57030;DHT22;42920;45.306;20.448;2023-12-20T04:06:36;51.80;2227.20
57030;DHT22;42920;45.306;20.448;2023-12-20T04:09:02;52.00;2227.20
57030;DHT22;42920;45.306;20.448;2023-12-20T04:11:27;52.10;2227.20
57030;DHT22;42920;45.306;20.448;2023-12-20T04:13:53;76.90;2227.20
57030;DHT22;42920;45.306;20.448;2023-12-20T04:16:18;52.10;2227.20
57030;DHT22;42920;45.306;20.448;2023-12-20T04:18:44;52.10;2227.20
57030;DHT22;42920;45.306;20.448;2023-12-20T04:21:09;52.00;2227.20
57030;DHT22;42920;45.306;20.448;2023-12-20T04:23:35;51.90;2227.20
57030;DHT22;42920;45.306;20.448;2023-12-20T04:26:01;51.90;2227.20
57030;DHT22;42920;45.306;20.448;2023-12-20T04:28:26;52.00;2227.20
57030;DHT22;42920;45.306;20.448;2023-12-20T04:30:52;51.90;2227.20
57030;DHT22;42920;45.306;20.448;2023-12-20T04:33:17;52.10;2227.20
57030;DHT22;42920;45.306;20.448;2023-12-20T04:35:43;52.00;2227.20
57030;DHT22;42920;45.306;20.448;2023-12-20T04:38:11;51.80;2227.20
57030;DHT22;42920;45.306;20.448;2023-12-20T04:40:36;51.70;2227.20
57030;DHT22;42920;45.306;20.448;2023-12-20T04:43:02;51.80;2227.20
57030;DHT22;42920;45.306;20.448;2023-12-20T04:45:27;51.80;2227.20
57030;DHT22;42920;45.306;20.448;2023-12-20T04:47:53;51.80;2227.20
57030;DHT22;42920;45.306;20.448;2023-12-20T04:50:19;51.80;2227.20
57030;DHT22;42920;45.306;20.448;2023-12-20T04:52:45;51.80;2227.20
57030;DHT22;42920;45.306;20.448;2023-12-20T04:55:10;51.80;2227.20
57030;DHT22;42920;45.306;20.448;2023-12-20T04:57:36;52.00;2227.20
57030;DHT22;42920;45.306;20.448;2023-12-20T05:00:02;52.10;2227.20
57030;DHT22;42920;45.306;20.448;2023-12-20T05:02:28;52.10;2227.20
57030;DHT22;42920;45.306;20.448;2023-12-20T05:04:54;76.90;2227.20
57030;DHT22;42920;45.306;20.448;2023-12-20T05:07:19;77.00;2227.20
57030;DHT22;42920;45.306;20.448;2023-12-20T05:09:45;77.20;2227.20
57030;DHT22;42920;45.306;20.448;2023-12-20T05:12:11;77.10;2227.20
57030;DHT22;42920;45.306;20.448;2023-12-20T05:14:37;77.00;2227.20
57030;DHT22;42920;45.306;20.448;2023-12-20T05:17:02;77.00;2227.20
57030;DHT22;42920;45.306;20.448;2023-12-20T05:19:28;77.10;2227.20
57030;DHT22;42920;45.306;20.448;2023-12-20T05:21:54;77.00;2227.20
57030;DHT22;42920;45.306;20.448;2023-12-20T05:24:19;77.10;2227.20
57030;DHT22;42920;45.306;20.448;2023-12-20T05:26:45;77.10;2227.20
57030;DHT22;42920;45.306;20.448;2023-12-20T05:29:10;77.10;2227.20
57030;DHT22;42920;45.306;20.448;2023-12-20T05:31:36;77.10;2227.20
57030;DHT22;42920;45.306;20.448;2023-12-20T05:34:02;77.20;2227.20
57030;DHT22;42920;45.306;20.448;2023-12-20T05:36:27;77.30;2227.20
57030;DHT22;42920;45.306;20.448;2023-12-20T05:38:53;77.40;2227.20
57030;DHT22;42920;45.306;20.448;2023-12-20T05:41:19;77.40;2227.20
57030;DHT22;42920;45.306;20.448;2023-12-20T05:43:46;77.50;2227.20
57030;DHT22;42920;45.306;20.448;2023-12-20T05:46:12;77.40;2227.20
57030;DHT22;42920;45.306;20.448;2023-12-20T05:48:38;77.20;2227.20
57030;DHT22;42920;45.306;20.448;2023-12-20T05:51:04;77.10;2227.20
57030;DHT22;42920;45.306;20.448;2023-12-20T05:53:29;77.10;2227.20
57030;DHT22;42920;45.306;20.448;2023-12-20T05:55:55;77.20;2227.20
57030;DHT22;42920;45.306;20.448;2023-12-20T05:58:20;77.30;2227.20
57030;DHT22;42920;45.306;20.448;2023-12-20T06:00:46;77.10;2227.20
57030;DHT22;42920;45.306;20.448;2023-12-20T06:03:12;77.10;2227.20
57030;DHT22;42920;45.306;20.448;2023-12-20T06:05:37;77.10;2227.20
57030;DHT22;42920;45.306;20.448;2023-12-20T06:08:03;77.20;2227.20
57030;DHT22;42920;45.306;20.448;2023-12-20T06:10:28;76.90;2227.20
57030;DHT22;42920;45.306;20.448;2023-12-20T06:12:54;77.00;2227.20
57030;DHT22;42920;45.306;20.448;2023-12-20T06:15:21;77.00;2227.20
57030;DHT22;42920;45.306;20.448;2023-12-20T06:17:47;77.10;2227.20
57030;DHT22;42920;45.306;20.448;2023-12-20T06:20:12;77.10;2227.20
57030;DHT22;42920;45.306;20.448;2023-12-20T06:22:38;77.20;2227.20
57030;DHT22;42920;45.306;20.448;2023-12-20T06:25:04;77.30;2227.20
57030;DHT22;42920;45.306;20.448;2023-12-20T06:27:30;77.40;2227.20
57030;DHT22;42920;45.306;20.448;2023-12-20T06:29:57;77.30;2227.20
57030;DHT22;42920;45.306;20.448;2023-12-20T06:32:23;77.30;2227.20
57030;DHT22;42920;45.306;20.448;2023-12-20T06:34:49;77.20;2227.20
57030;DHT22;42920;45.306;20.448;2023-12-20T06:37:15;77.40;2227.20
57030;DHT22;42920;45.306;20.448;2023-12-20T06:39:40;77.50;2227.20
57030;DHT22;42920;45.306;20.448;2023-12-20T06:42:06;77.60;2227.20
57030;DHT22;42920;45.306;20.448;2023-12-20T06:44:32;77.70;2227.20
57030;DHT22;42920;45.306;20.448;2023-12-20T06:46:57;102.40;2227.20
57030;DHT22;42920;45.306;20.448;2023-12-20T06:49:23;102.40;2227.20
57030;DHT22;42920;45.306;20.448;2023-12-20T06:51:49;102.40;2227.20
57030;DHT22;42920;45.306;20.448;2023-12-20T06:54:14;77.70;2227.20
57030;DHT22;42920;45.306;20.448;2023-12-20T06:56:40;77.70;2227.20
57030;DHT22;42920;45.306;20.448;2023-12-20T06:59:06;77.70;2227.20
57030;DHT22;42920;45.306;20.448;2023-12-20T07:01:32;77.70;2227.20
57030;DHT22;42920;45.306;20.448;2023-12-20T07:03:57;77.70;2227.20
57030;DHT22;42920;45.306;20.448;2023-12-20T07:06:23;102.40;2227.20
57030;DHT22;42920;45.306;20.448;2023-12-20T07:08:51;102.50;2227.20
57030;DHT22;42920;45.306;20.448;2023-12-20T07:11:17;102.50;2227.20
57030;DHT22;42920;45.306;20.448;2023-12-20T07:13:43;102.50;2227.20
57030;DHT22;42920;45.306;20.448;2023-12-20T07:16:08;77.70;2227.20
57030;DHT22;42920;45.306;20.448;2023-12-20T07:18:34;77.70;2227.20
57030;DHT22;42920;45.306;20.448;2023-12-20T07:20:59;102.40;2227.20
57030;DHT22;42920;45.306;20.448;2023-12-20T07:23:25;77.70;2227.20
57030;DHT22;42920;45.306;20.448;2023-12-20T07:25:52;77.70;2227.20
57030;DHT22;42920;45.306;20.448;2023-12-20T07:28:17;77.70;2227.20
57030;DHT22;42920;45.306;20.448;2023-12-20T07:30:43;102.40;2227.20
57030;DHT22;42920;45.306;20.448;2023-12-20T07:33:08;102.40;2227.20
57030;DHT22;42920;45.306;20.448;2023-12-20T07:35:35;102.50;2227.20
57030;DHT22;42920;45.306;20.448;2023-12-20T07:38:00;102.70;2227.20
57030;DHT22;42920;45.306;20.448;2023-12-20T07:40:27;102.80;2227.20
57030;DHT22;42920;45.306;20.448;2023-12-20T07:42:53;102.90;2227.20
57030;DHT22;42920;45.306;20.448;2023-12-20T07:45:18;102.90;2227.20
57030;DHT22;42920;45.306;20.448;2023-12-20T07:47:44;103.00;2227.20
57030;DHT22;42920;45.306;20.448;2023-12-20T07:50:09;103.00;2227.20
57030;DHT22;42920;45.306;20.448;2023-12-20T07:52:35;103.00;2227.20
57030;DHT22;42920;45.306;20.448;2023-12-20T07:55:01;103.00;2227.20
57030;DHT22;42920;45.306;20.448;2023-12-20T07:57:30;102.90;2227.20
57030;DHT22;42920;45.306;20.448;2023-12-20T07:59:56;102.70;2227.20
57030;DHT22;42920;45.306;20.448;2023-12-20T08:02:21;102.90;2227.20
57030;DHT22;42920;45.306;20.448;2023-12-20T08:04:47;103.00;2227.20
57030;DHT22;42920;45.306;20.448;2023-12-20T08:07:12;103.10;2227.20
57030;DHT22;42920;45.306;20.448;2023-12-20T08:09:38;103.00;2227.20
57030;DHT22;42920;45.306;20.448;2023-12-20T08:12:04;103.00;2227.20
57030;DHT22;42920;45.306;20.448;2023-12-20T08:14:29;103.00;2227.20
57030;DHT22;42920;45.306;20.448;2023-12-20T08:16:55;103.00;2227.20
57030;DHT22;42920;45.306;20.448;2023-12-20T08:19:21;102.80;2227.20
57030;DHT22;42920;45.306;20.448;2023-12-20T08:21:46;102.80;2227.20
57030;DHT22;42920;45.306;20.448;2023-12-20T08:24:12;103.00;2227.20
57030;DHT22;42920;45.306;20.448;2023-12-20T08:26:37;103.20;2227.20
57030;DHT22;42920;45.306;20.448;2023-12-20T08:29:03;103.30;2227.20
57030;DHT22;42920;45.306;20.448;2023-12-20T08:31:29;128.20;2252.80
57030;DHT22;42920;45.306;20.448;2023-12-20T08:33:54;128.30;2252.80
57030;DHT22;42920;45.306;20.448;2023-12-20T08:36:20;128.40;2252.80
57030;DHT22;42920;45.306;20.448;2023-12-20T08:38:48;128.50;2252.80
57030;DHT22;42920;45.306;20.448;2023-12-20T08:41:13;128.60;2252.80
57030;DHT22;42920;45.306;20.448;2023-12-20T08:43:39;128.50;2252.80
57030;DHT22;42920;45.306;20.448;2023-12-20T08:46:05;128.40;2252.80
57030;DHT22;42920;45.306;20.448;2023-12-20T08:48:31;128.90;2252.80
57030;DHT22;42920;45.306;20.448;2023-12-20T08:50:57;128.50;2252.80
57030;DHT22;42920;45.306;20.448;2023-12-20T08:53:22;128.60;2252.80
57030;DHT22;42920;45.306;20.448;2023-12-20T08:55:48;128.70;2252.80
57030;DHT22;42920;45.306;20.448;2023-12-20T08:58:14;128.50;2252.80
57030;DHT22;42920;45.306;20.448;2023-12-20T09:00:39;128.70;2252.80
57030;DHT22;42920;45.306;20.448;2023-12-20T09:03:05;128.80;2252.80
57030;DHT22;42920;45.306;20.448;2023-12-20T09:05:31;128.80;2252.80
57030;DHT22;42920;45.306;20.448;2023-12-20T09:07:56;128.90;2252.80
57030;DHT22;42920;45.306;20.448;2023-12-20T09:10:22;128.90;2252.80
57030;DHT22;42920;45.306;20.448;2023-12-20T09:12:51;153.60;2252.80
57030;DHT22;42920;45.306;20.448;2023-12-20T09:15:24;153.60;2252.80
57030;DHT22;42920;45.306;20.448;2023-12-20T09:17:50;128.80;2252.80
57030;DHT22;42920;45.306;20.448;2023-12-20T09:20:16;153.60;2252.80
57030;DHT22;42920;45.306;20.448;2023-12-20T09:22:42;153.70;2252.80
57030;DHT22;42920;45.306;20.448;2023-12-20T09:25:08;153.60;2252.80
57030;DHT22;42920;45.306;20.448;2023-12-20T09:27:33;153.80;2252.80
57030;DHT22;42920;45.306;20.448;2023-12-20T09:29:59;153.90;2252.80
57030;DHT22;42920;45.306;20.448;2023-12-20T09:32:24;153.80;2252.80
57030;DHT22;42920;45.306;20.448;2023-12-20T09:34:50;153.90;2252.80
57030;DHT22;42920;45.306;20.448;2023-12-20T09:37:16;154.00;2252.80
57030;DHT22;42920;45.306;20.448;2023-12-20T09:39:41;154.00;2252.80
57030;DHT22;42920;45.306;20.448;2023-12-20T09:42:07;154.10;2252.80
57030;DHT22;42920;45.306;20.448;2023-12-20T09:44:33;154.00;2252.80
57030;DHT22;42920;45.306;20.448;2023-12-20T09:47:01;154.10;2252.80
57030;DHT22;42920;45.306;20.448;2023-12-20T09:49:27;154.10;2252.80
57030;DHT22;42920;45.306;20.448;2023-12-20T09:51:53;154.10;2252.80
57030;DHT22;42920;45.306;20.448;2023-12-20T09:54:19;154.00;2252.80
57030;DHT22;42920;45.306;20.448;2023-12-20T09:56:46;154.00;2252.80
57030;DHT22;42920;45.306;20.448;2023-12-20T09:59:12;153.90;2252.80
57030;DHT22;42920;45.306;20.448;2023-12-20T10:01:38;153.80;2252.80
57030;DHT22;42920;45.306;20.448;2023-12-20T10:04:08;153.90;2252.80
57030;DHT22;42920;45.306;20.448;2023-12-20T10:06:43;153.90;2252.80
57030;DHT22;42920;45.306;20.448;2023-12-20T10:09:09;153.90;2252.80
57030;DHT22;42920;45.306;20.448;2023-12-20T10:11:36;153.90;2252.80
57030;DHT22;42920;45.306;20.448;2023-12-20T10:14:05;153.90;2252.80
57030;DHT22;42920;45.306;20.448;2023-12-20T10:16:31;153.90;2252.80
57030;DHT22;42920;45.306;20.448;2023-12-20T10:18:58;154.00;2252.80
57030;DHT22;42920;45.306;20.448;2023-12-20T10:21:23;154.10;2252.80
57030;DHT22;42920;45.306;20.448;2023-12-20T10:23:55;154.00;2252.80
57030;DHT22;42920;45.306;20.448;2023-12-20T10:26:21;154.00;2252.80
57030;DHT22;42920;45.306;20.448;2023-12-20T10:28:50;154.00;2252.80
57030;DHT22;42920;45.306;20.448;2023-12-20T10:33:55;153.90;2252.80
57030;DHT22;42920;45.306;20.448;2023-12-20T10:36:21;153.90;2252.80
57030;DHT22;42920;45.306;20.448;2023-12-20T10:38:48;154.00;2252.80
57030;DHT22;42920;45.306;20.448;2023-12-20T10:41:15;154.10;2252.80
57030;DHT22;42920;45.306;20.448;2023-12-20T10:43:43;154.00;2252.80
57030;DHT22;42920;45.306;20.448;2023-12-20T10:46:09;154.10;2252.80
57030;DHT22;42920;45.306;20.448;2023-12-20T10:48:35;154.00;2252.80
57030;DHT22;42920;45.306;20.448;2023-12-20T10:51:01;154.10;2252.80
57030;DHT22;42920;45.306;20.448;2023-12-20T10:53:27;154.00;2252.80
57030;DHT22;42920;45.306;20.448;2023-12-20T10:55:53;153.90;2252.80
57030;DHT22;42920;45.306;20.448;2023-12-20T10:58:20;154.00;2252.80
57030;DHT22;42920;45.306;20.448;2023-12-20T11:00:47;154.10;2252.80
57030;DHT22;42920;45.306;20.448;2023-12-20T11:03:15;154.10;2252.80
57030;DHT22;42920;45.306;20.448;2023-12-20T11:05:47;154.00;2252.80
57030;DHT22;42920;45.306;20.448;2023-12-20T11:10:43;153.90;2252.80
57030;DHT22;42920;45.306;20.448;2023-12-20T11:13:29;153.80;2252.80
57030;DHT22;42920;45.306;20.448;2023-12-20T11:15:57;153.80;2252.80
57030;DHT22;42920;45.306;20.448;2023-12-20T11:18:28;153.80;2252.80
57030;DHT22;42920;45.306;20.448;2023-12-20T11:20:53;153.70;2252.80
57030;DHT22;42920;45.306;20.448;2023-12-20T11:23:19;153.80;2252.80
57030;DHT22;42920;45.306;20.448;2023-12-20T11:25:46;153.80;2252.80
57030;DHT22;42920;45.306;20.448;2023-12-20T11:28:11;153.80;2252.80
57030;DHT22;42920;45.306;20.448;2023-12-20T11:30:41;154.00;2252.80
57030;DHT22;42920;45.306;20.448;2023-12-20T11:33:07;154.00;2252.80
57030;DHT22;42920;45.306;20.448;2023-12-20T11:35:33;154.00;2252.80
57030;DHT22;42920;45.306;20.448;2023-12-20T11:38:00;154.10;2252.80
57030;DHT22;42920;45.306;20.448;2023-12-20T11:40:26;154.20;2252.80
57030;DHT22;42920;45.306;20.448;2023-12-20T11:42:52;154.10;2252.80
57030;DHT22;42920;45.306;20.448;2023-12-20T11:45:23;154.10;2252.80
57030;DHT22;42920;45.306;20.448;2023-12-20T11:47:50;154.10;2252.80
57030;DHT22;42920;45.306;20.448;2023-12-20T11:50:16;154.00;2252.80
57030;DHT22;42920;45.306;20.448;2023-12-20T11:52:42;154.10;2252.80
57030;DHT22;42920;45.306;20.448;2023-12-20T11:55:07;154.20;2252.80
57030;DHT22;42920;45.306;20.448;2023-12-20T11:57:33;154.20;2252.80
57030;DHT22;42920;45.306;20.448;2023-12-20T11:59:59;154.30;2252.80
57030;DHT22;42920;45.306;20.448;2023-12-20T12:02:24;154.40;2252.80
57030;DHT22;42920;45.306;20.448;2023-12-20T12:04:50;154.30;2252.80
57030;DHT22;42920;45.306;20.448;2023-12-20T12:07:16;154.30;2252.80
57030;DHT22;42920;45.306;20.448;2023-12-20T12:09:42;154.20;2252.80
57030;DHT22;42920;45.306;20.448;2023-12-20T12:12:08;154.10;2252.80
57030;DHT22;42920;45.306;20.448;2023-12-20T12:14:33;154.40;2252.80
57030;DHT22;42920;45.306;20.448;2023-12-20T12:17:02;154.50;2252.80
57030;DHT22;42920;45.306;20.448;2023-12-20T12:19:28;179.30;2252.80
57030;DHT22;42920;45.306;20.448;2023-12-20T12:22:13;179.20;2252.80
57030;DHT22;42920;45.306;20.448;2023-12-20T12:24:39;154.40;2252.80
57030;DHT22;42920;45.306;20.448;2023-12-20T12:27:08;154.30;2252.80
57030;DHT22;42920;45.306;20.448;2023-12-20T12:29:34;154.40;2252.80
57030;DHT22;42920;45.306;20.448;2023-12-20T12:32:00;154.50;2252.80
57030;DHT22;42920;45.306;20.448;2023-12-20T12:34:28;154.40;2252.80
57030;DHT22;42920;45.306;20.448;2023-12-20T12:36:54;154.50;2252.80
57030;DHT22;42920;45.306;20.448;2023-12-20T12:39:20;179.20;2252.80
57030;DHT22;42920;45.306;20.448;2023-12-20T12:41:45;179.30;2252.80
57030;DHT22;42920;45.306;20.448;2023-12-20T12:44:11;154.50;2252.80
57030;DHT22;42920;45.306;20.448;2023-12-20T12:46:37;154.20;2252.80
57030;DHT22;42920;45.306;20.448;2023-12-20T12:49:02;154.30;2252.80
57030;DHT22;42920;45.306;20.448;2023-12-20T12:51:29;154.20;2252.80
57030;DHT22;42920;45.306;20.448;2023-12-20T12:53:54;154.40;2252.80
57030;DHT22;42920;45.306;20.448;2023-12-20T12:56:20;154.20;2252.80
57030;DHT22;42920;45.306;20.448;2023-12-20T12:58:47;154.20;2252.80
57030;DHT22;42920;45.306;20.448;2023-12-20T13:01:13;154.20;2252.80
57030;DHT22;42920;45.306;20.448;2023-12-20T13:03:39;154.30;2252.80
57030;DHT22;42920;45.306;20.448;2023-12-20T13:06:05;154.30;2252.80
57030;DHT22;42920;45.306;20.448;2023-12-20T13:08:31;154.30;2252.80
57030;DHT22;42920;45.306;20.448;2023-12-20T13:10:57;154.20;2252.80
57030;DHT22;42920;45.306;20.448;2023-12-20T13:13:28;154.10;2252.80
57030;DHT22;42920;45.306;20.448;2023-12-20T13:15:54;154.10;2252.80
57030;DHT22;42920;45.306;20.448;2023-12-20T13:18:23;154.00;2252.80
57030;DHT22;42920;45.306;20.448;2023-12-20T13:20:49;154.00;2252.80
57030;DHT22;42920;45.306;20.448;2023-12-20T13:23:15;154.10;2252.80
57030;DHT22;42920;45.306;20.448;2023-12-20T13:25:43;154.10;2252.80
57030;DHT22;42920;45.306;20.448;2023-12-20T13:28:10;153.80;2252.80
57030;DHT22;42920;45.306;20.448;2023-12-20T13:30:36;154.00;2252.80
57030;DHT22;42920;45.306;20.448;2023-12-20T13:33:02;154.00;2252.80
57030;DHT22;42920;45.306;20.448;2023-12-20T13:35:28;154.20;2252.80
57030;DHT22;42920;45.306;20.448;2023-12-20T13:37:53;154.20;2252.80
57030;DHT22;42920;45.306;20.448;2023-12-20T13:40:21;154.00;2252.80
57030;DHT22;42920;45.306;20.448;2023-12-20T13:42:47;153.80;2252.80
57030;DHT22;42920;45.306;20.448;2023-12-20T13:45:13;153.70;2252.80
57030;DHT22;42920;45.306;20.448;2023-12-20T13:47:39;153.80;2252.80
57030;DHT22;42920;45.306;20.448;2023-12-20T13:50:05;153.70;2252.80
57030;DHT22;42920;45.306;20.448;2023-12-20T13:52:30;153.80;2252.80
57030;DHT22;42920;45.306;20.448;2023-12-20T13:54:56;153.70;2252.80
57030;DHT22;42920;45.306;20.448;2023-12-20T13:57:21;153.70;2252.80
57030;DHT22;42920;45.306;20.448;2023-12-20T13:59:47;128.90;2252.80
57030;DHT22;42920;45.306;20.448;2023-12-20T14:02:13;128.90;2252.80
57030;DHT22;42920;45.306;20.448;2023-12-20T14:04:38;128.80;2252.80
57030;DHT22;42920;45.306;20.448;2023-12-20T14:07:04;153.60;2252.80
57030;DHT22;42920;45.306;20.448;2023-12-20T14:09:30;128.90;2252.80
57030;DHT22;42920;45.306;20.448;2023-12-20T14:11:56;153.60;2252.80
57030;DHT22;42920;45.306;20.448;2023-12-20T14:14:21;153.60;2252.80
57030;DHT22;42920;45.306;20.448;2023-12-20T14:16:47;128.90;2252.80
57030;DHT22;42920;45.306;20.448;2023-12-20T14:19:12;128.90;2252.80
57030;DHT22;42920;45.306;20.448;2023-12-20T14:21:38;128.90;2252.80
57030;DHT22;42920;45.306;20.448;2023-12-20T14:24:04;153.60;2252.80
57030;DHT22;42920;45.306;20.448;2023-12-20T14:26:30;128.70;2252.80
57030;DHT22;42920;45.306;20.448;2023-12-20T14:28:56;128.60;2252.80
57030;DHT22;42920;45.306;20.448;2023-12-20T14:31:21;128.60;2252.80
57030;DHT22;42920;45.306;20.448;2023-12-20T14:33:49;128.50;2252.80
57030;DHT22;42920;45.306;20.448;2023-12-20T14:36:16;128.50;2252.80
57030;DHT22;42920;45.306;20.448;2023-12-20T14:38:43;128.80;2252.80
57030;DHT22;42920;45.306;20.448;2023-12-20T14:41:09;128.90;2252.80